createdAt,value
2022-12-19T00:00:35.033Z,37.17
2022-12-19T00:05:39.226Z,38.15
2022-12-19T00:10:41.929Z,43.92
2022-12-19T00:15:43.681Z,41.47
2022-12-19T00:20:45.484Z,36.17
2022-12-19T00:25:47.214Z,36.22
2022-12-19T00:30:50.524Z,39.40
2022-12-19T00:35:59.865Z,36.85
2022-12-19T00:41:33.802Z,40.88
2022-12-19T00:46:36.513Z,37.83
2022-12-19T00:51:38.515Z,41.60
2022-12-19T00:56:43.434Z,42.47
2022-12-19T01:01:45.347Z,34.38
2022-12-19T01:06:49.937Z,36.53
2022-12-19T01:12:10.920Z,44.70
2022-12-19T01:17:12.707Z,36.80
2022-12-19T01:22:14.524Z,48.53
2022-12-19T01:27:16.557Z,35.00
2022-12-19T01:32:18.425Z,39.85
2022-12-19T01:37:20.591Z,44.83
2022-12-19T01:42:23.575Z,44.67
2022-12-19T01:47:26.538Z,46.72
2022-12-19T01:52:28.518Z,37.35
2022-12-19T01:57:30.387Z,43.85
2022-12-19T02:02:36.066Z,41.92
2022-12-19T02:07:39.962Z,43.50
2022-12-19T02:12:43.851Z,46.65
2022-12-19T02:18:01.152Z,44.95
2022-12-19T02:23:48.321Z,37.38
2022-12-19T02:29:19.291Z,39.38
2022-12-19T02:34:33.403Z,44.85
2022-12-19T02:39:53.021Z,48.80
2022-12-19T02:44:56.672Z,43.50
2022-12-19T02:50:03.033Z,40.45
2022-12-19T02:55:09.800Z,39.65
2022-12-19T03:00:16.249Z,38.22
2022-12-19T03:05:34.188Z,34.10
2022-12-19T03:10:39.039Z,30.98
2022-12-19T03:15:41.985Z,29.48
2022-12-19T03:20:52.833Z,30.92
2022-12-19T03:26:00.011Z,34.75
2022-12-19T03:31:04.329Z,31.60
2022-12-19T03:36:09.211Z,31.45
2022-12-19T03:41:14.506Z,31.42
2022-12-19T03:46:26.083Z,24.63
2022-12-19T03:51:34.071Z,30.88
2022-12-19T03:56:45.654Z,28.92
2022-12-19T04:01:50.273Z,33.33
2022-12-19T04:06:53.274Z,33.63
2022-12-19T04:12:00.885Z,30.48
2022-12-19T04:17:43.437Z,28.13
2022-12-19T04:23:10.349Z,30.52
2022-12-19T04:28:34.846Z,28.60
2022-12-19T04:33:36.716Z,30.40
2022-12-19T04:38:38.729Z,29.88
2022-12-19T04:43:40.552Z,23.33
2022-12-19T04:48:42.419Z,23.42
2022-12-19T04:53:44.437Z,30.27
2022-12-19T04:58:46.289Z,27.35
2022-12-19T05:03:54.062Z,26.30
2022-12-19T05:08:57.021Z,30.85
2022-12-19T05:13:59.846Z,30.35
2022-12-19T05:19:01.800Z,28.75
2022-12-19T05:24:03.935Z,27.83
2022-12-19T05:29:05.820Z,32.05
2022-12-19T05:34:07.642Z,28.52
2022-12-19T05:39:09.476Z,29.52
2022-12-19T05:44:11.600Z,26.85
2022-12-19T05:49:17.683Z,29.40
2022-12-19T05:54:19.858Z,27.10
2022-12-19T05:59:21.656Z,26.70
2022-12-19T06:04:23.479Z,32.95
2022-12-19T06:09:25.381Z,31.90
2022-12-19T06:14:27.209Z,34.20
2022-12-19T06:19:30.745Z,36.15
2022-12-19T06:24:32.637Z,42.10
2022-12-19T06:29:34.489Z,32.75
2022-12-19T06:39:58.114Z,33.85
2022-12-19T06:44:59.963Z,33.20
2022-12-19T06:50:02.284Z,37.83
2022-12-19T06:55:04.408Z,38.55
2022-12-19T07:00:06.837Z,34.08
2022-12-19T07:05:09.767Z,38.28
2022-12-19T07:10:11.690Z,38.67
2022-12-19T07:15:13.664Z,41.72
2022-12-19T07:20:16.930Z,41.22
2022-12-19T07:25:18.805Z,35.08
2022-12-19T07:30:20.615Z,43.33
2022-12-19T07:35:23.218Z,42.00
2022-12-19T07:40:25.023Z,40.13
2022-12-19T07:45:27.849Z,45.63
2022-12-19T07:50:30.616Z,44.30
2022-12-19T07:55:33.690Z,41.17
2022-12-19T08:00:35.685Z,38.67
2022-12-19T08:05:37.533Z,38.90
2022-12-19T08:10:39.409Z,44.28
2022-12-19T08:15:41.288Z,41.90
2022-12-19T08:20:46.414Z,36.45
2022-12-19T08:25:48.369Z,36.63
2022-12-19T08:36:28.999Z,38.80
2022-12-19T08:41:32.081Z,35.88
2022-12-19T08:46:33.948Z,36.60
2022-12-19T08:51:35.788Z,38.97
2022-12-19T08:56:38.119Z,39.15
2022-12-19T09:01:48.277Z,50.10
2022-12-19T09:06:50.461Z,44.55
2022-12-19T09:11:52.322Z,46.72
2022-12-19T09:16:54.235Z,42.97
2022-12-19T09:21:59.707Z,50.88
2022-12-19T09:27:02.121Z,50.95
2022-12-19T09:32:04.118Z,52.58
2022-12-19T09:37:17.000Z,56.65
2022-12-19T09:42:40.924Z,53.25
2022-12-19T09:47:47.185Z,47.83
2022-12-19T09:53:02.644Z,48.80
2022-12-19T09:58:13.757Z,47.03
2022-12-19T10:03:39.783Z,44.25
2022-12-19T10:09:39.693Z,39.58
2022-12-19T10:14:31.808Z,41.22
2022-12-19T10:20:11.875Z,41.97
2022-12-19T10:25:34.889Z,51.88
2022-12-19T10:30:45.305Z,50.40
2022-12-19T10:35:57.475Z,46.15
2022-12-19T10:41:03.730Z,44.38
2022-12-19T10:46:18.158Z,49.42
2022-12-19T10:51:26.514Z,51.47
2022-12-19T10:56:37.139Z,48.10
2022-12-19T11:01:39.905Z,44.95
2022-12-19T11:06:49.455Z,45.60
2022-12-19T11:13:32.224Z,42.47
2022-12-19T11:25:32.891Z,39.70
2022-12-19T11:29:33.477Z,45.28
2022-12-19T11:30:43.752Z,44.83
2022-12-19T11:34:06.970Z,47.95
2022-12-19T11:39:19.495Z,47.63
2022-12-19T11:44:53.640Z,50.65
2022-12-19T11:50:03.595Z,52.03
2022-12-19T11:55:25.729Z,50.13
2022-12-19T12:00:28.150Z,49.80
2022-12-19T12:05:46.272Z,49.92
2022-12-19T12:15:44.870Z,45.85
2022-12-19T12:29:41.610Z,51.97
2022-12-19T12:31:11.789Z,48.33
2022-12-19T12:31:57.752Z,47.38
2022-12-19T12:35:56.637Z,45.97
2022-12-19T12:39:38.796Z,51.75
2022-12-19T12:44:45.961Z,45.73
2022-12-19T12:50:01.314Z,51.80
2022-12-19T12:55:06.421Z,46.13
2022-12-19T13:00:22.839Z,46.75
2022-12-19T13:05:53.744Z,48.67
2022-12-19T13:10:58.754Z,44.15
2022-12-19T13:16:20.624Z,46.78
2022-12-19T13:21:22.708Z,46.33
2022-12-19T13:26:50.158Z,57.17
2022-12-19T13:32:13.711Z,49.75
2022-12-19T13:39:47.738Z,64.55
2022-12-19T13:43:25.617Z,51.83
2022-12-19T13:48:43.892Z,53.00
2022-12-19T13:53:46.048Z,56.08
2022-12-19T13:59:00.695Z,58.47
2022-12-19T14:04:12.547Z,50.35
2022-12-19T14:11:27.416Z,55.58
2022-12-19T14:15:21.740Z,62.78
2022-12-19T14:22:05.553Z,47.10
2022-12-19T14:28:20.529Z,44.53
2022-12-19T14:31:18.766Z,46.90
2022-12-19T14:36:40.498Z,44.25
2022-12-19T14:42:04.352Z,40.97
2022-12-19T14:54:01.914Z,34.50
2022-12-19T14:54:52.571Z,38.50
2022-12-19T14:58:52.801Z,40.67
2022-12-19T15:04:50.766Z,35.58
2022-12-19T15:11:04.094Z,49.15
2022-12-19T15:14:59.009Z,38.13
2022-12-19T15:20:01.936Z,45.35
2022-12-19T15:25:04.063Z,41.92
2022-12-19T15:30:15.788Z,40.60
2022-12-19T15:35:19.853Z,40.47
2022-12-19T15:40:21.883Z,41.38
2022-12-19T15:45:24.619Z,37.70
2022-12-19T15:50:29.752Z,42.53
2022-12-19T15:55:31.822Z,41.00
2022-12-19T16:00:36.281Z,40.03
2022-12-19T16:05:38.194Z,39.70
2022-12-19T16:10:41.538Z,41.97
2022-12-19T16:15:44.454Z,38.13
2022-12-19T16:20:47.975Z,40.40
2022-12-19T16:25:51.003Z,44.75
2022-12-19T16:30:53.789Z,44.17
2022-12-19T16:36:05.790Z,41.35
2022-12-19T16:41:22.066Z,38.70
2022-12-19T16:46:24.062Z,33.88
2022-12-19T16:51:28.097Z,38.70
2022-12-19T16:56:33.987Z,32.97
2022-12-19T17:01:36.291Z,38.58
2022-12-19T17:06:38.191Z,56.33
2022-12-19T17:11:40.957Z,43.00
2022-12-19T17:16:42.841Z,44.80
2022-12-19T17:21:44.748Z,33.38
2022-12-19T17:26:47.057Z,41.05
2022-12-19T17:31:49.003Z,50.88
2022-12-19T17:36:51.417Z,37.78
2022-12-19T17:41:56.178Z,43.72
2022-12-19T17:46:58.982Z,43.65
2022-12-19T17:52:00.964Z,44.63
2022-12-19T17:57:02.871Z,48.13
2022-12-19T18:02:12.741Z,46.00
2022-12-19T18:07:18.343Z,46.60
2022-12-19T18:12:20.364Z,42.83
2022-12-19T18:17:25.519Z,47.65
2022-12-19T18:22:27.394Z,48.28
2022-12-19T18:27:29.216Z,46.67
2022-12-19T18:32:31.333Z,48.13
2022-12-19T18:37:33.378Z,37.92
2022-12-19T18:42:35.186Z,46.97
2022-12-19T18:47:37.018Z,37.83
2022-12-19T18:52:38.842Z,35.15
2022-12-19T18:57:40.646Z,43.60
2022-12-19T19:03:04.824Z,39.53
2022-12-19T19:08:22.471Z,72.85
2022-12-19T19:13:34.613Z,89.75
2022-12-19T19:18:40.359Z,49.22
2022-12-19T19:23:58.237Z,46.95
2022-12-19T19:29:00.602Z,42.60
2022-12-19T19:34:12.915Z,40.13
2022-12-19T19:39:15.597Z,39.90
2022-12-19T19:44:17.625Z,47.50
2022-12-19T19:49:23.164Z,40.25
2022-12-19T19:54:25.267Z,35.03
2022-12-19T19:59:31.620Z,43.83
2022-12-19T20:04:33.877Z,36.22
2022-12-19T20:09:35.884Z,39.17
2022-12-19T20:14:37.912Z,38.17
2022-12-19T20:19:40.002Z,40.90
2022-12-19T20:24:42.048Z,44.05
2022-12-19T20:29:44.387Z,40.72
2022-12-19T20:34:46.669Z,38.97
2022-12-19T20:39:48.763Z,44.05
2022-12-19T20:44:50.998Z,34.70
2022-12-19T20:49:53.240Z,41.53
2022-12-19T20:54:55.092Z,37.08
2022-12-19T20:59:56.942Z,43.70
2022-12-19T21:04:58.829Z,69.80
2022-12-19T21:10:00.658Z,55.67
2022-12-19T21:15:02.581Z,42.95
2022-12-19T21:20:04.935Z,43.58
2022-12-19T21:25:07.235Z,53.25
2022-12-19T21:30:09.725Z,50.10
2022-12-19T21:35:11.904Z,45.22
2022-12-19T21:40:14.124Z,51.83
2022-12-19T21:45:16.224Z,46.05
2022-12-19T21:50:18.118Z,46.03
2022-12-19T21:55:19.968Z,45.75
2022-12-19T22:00:21.932Z,48.08
2022-12-19T22:05:23.906Z,52.97
2022-12-19T22:10:25.801Z,48.15
2022-12-19T22:15:27.615Z,53.45
2022-12-19T22:20:30.202Z,57.88
2022-12-19T22:25:32.015Z,58.17
2022-12-19T22:30:36.856Z,55.45
2022-12-19T22:35:38.740Z,53.00
2022-12-19T22:40:40.553Z,57.03
2022-12-19T22:45:42.423Z,58.00
2022-12-19T22:50:47.099Z,52.38
2022-12-19T22:55:48.903Z,52.75
2022-12-19T23:00:50.807Z,61.25
2022-12-19T23:05:52.616Z,64.00
2022-12-19T23:10:55.258Z,67.93
2022-12-19T23:15:57.615Z,72.18
2022-12-19T23:21:09.039Z,48.13
2022-12-19T23:26:17.523Z,53.47
2022-12-19T23:31:19.832Z,51.50
2022-12-19T23:36:45.293Z,81.80
2022-12-19T23:41:44.034Z,61.03
2022-12-19T23:46:46.141Z,53.47
2022-12-19T23:51:47.995Z,56.55
2022-12-19T23:56:49.868Z,59.00
